createdAt,value
2018-07-13T00:00:53.021Z,14.90
2018-07-13T00:01:53.009Z,16.80
2018-07-13T00:02:52.993Z,17.80
2018-07-13T00:03:52.979Z,22.00
2018-07-13T00:04:52.978Z,18.70
2018-07-13T00:05:52.950Z,15.90
2018-07-13T00:06:52.936Z,18.20
2018-07-13T00:07:52.929Z,18.00
2018-07-13T00:08:52.908Z,15.30
2018-07-13T00:09:52.949Z,16.50
2018-07-13T00:10:52.879Z,19.20
2018-07-13T00:11:52.866Z,16.90
2018-07-13T00:12:52.858Z,20.30
2018-07-13T00:13:52.837Z,18.40
2018-07-13T00:14:52.824Z,15.80
2018-07-13T00:15:52.808Z,22.80
2018-07-13T00:16:52.795Z,18.10
2018-07-13T00:17:52.781Z,20.60
2018-07-13T00:18:52.767Z,20.70
2018-07-13T00:19:52.750Z,19.90
2018-07-13T00:20:52.739Z,23.90
2018-07-13T00:21:52.725Z,17.50
2018-07-13T00:22:52.710Z,25.30
2018-07-13T00:23:52.695Z,20.30
2018-07-13T00:24:52.681Z,18.90
2018-07-13T00:25:52.668Z,24.20
2018-07-13T00:26:52.669Z,19.70
2018-07-13T00:27:52.647Z,18.40
2018-07-13T00:28:52.634Z,21.80
2018-07-13T00:29:52.612Z,23.10
2018-07-13T00:30:52.611Z,16.60
2018-07-13T00:31:52.581Z,21.70
2018-07-13T00:32:52.565Z,22.30
2018-07-13T00:33:52.560Z,18.70
2018-07-13T00:34:52.537Z,24.70
2018-07-13T00:35:52.528Z,16.70
2018-07-13T00:36:52.509Z,20.90
2018-07-13T00:37:52.494Z,18.00
2018-07-13T00:38:52.479Z,18.20
2018-07-13T00:39:52.515Z,20.40
2018-07-13T00:40:52.451Z,19.70
2018-07-13T00:41:52.436Z,16.70
2018-07-13T00:42:52.422Z,20.90
2018-07-13T00:43:52.409Z,18.50
2018-07-13T00:44:52.394Z,21.10
2018-07-13T00:45:52.381Z,24.70
2018-07-13T00:46:52.367Z,18.80
2018-07-13T00:47:52.349Z,17.00
2018-07-13T00:48:52.336Z,24.40
2018-07-13T00:49:52.321Z,21.60
2018-07-13T00:50:52.308Z,20.70
2018-07-13T00:51:52.293Z,22.70
2018-07-13T00:52:52.378Z,19.70
2018-07-13T00:53:52.267Z,16.90
2018-07-13T00:54:52.250Z,19.10
2018-07-13T00:55:52.235Z,20.40
2018-07-13T00:56:52.220Z,21.50
2018-07-13T00:57:52.206Z,17.90
2018-07-13T00:58:52.196Z,21.40
2018-07-13T00:59:52.176Z,19.30
2018-07-13T01:00:52.169Z,25.30
2018-07-13T01:01:52.148Z,23.70
2018-07-13T01:02:52.132Z,21.60
2018-07-13T01:03:52.119Z,23.90
2018-07-13T01:04:52.104Z,18.80
2018-07-13T01:05:52.089Z,19.80
2018-07-13T01:06:52.075Z,22.70
2018-07-13T01:07:52.060Z,23.60
2018-07-13T01:08:52.052Z,25.00
2018-07-13T01:09:52.033Z,23.60
2018-07-13T01:10:52.018Z,24.30
2018-07-13T01:11:52.003Z,20.30
2018-07-13T01:12:51.995Z,24.30
2018-07-13T01:13:51.978Z,21.70
2018-07-13T01:14:51.962Z,23.00
2018-07-13T01:15:51.944Z,21.20
2018-07-13T01:16:51.937Z,31.00
2018-07-13T01:17:51.915Z,27.80
2018-07-13T01:18:51.900Z,21.90
2018-07-13T01:19:51.887Z,25.70
2018-07-13T01:20:51.879Z,22.30
2018-07-13T01:21:51.856Z,27.40
2018-07-13T01:22:51.851Z,21.30
2018-07-13T01:23:51.826Z,20.60
2018-07-13T01:24:51.815Z,20.70
2018-07-13T01:25:51.798Z,22.20
2018-07-13T01:26:51.784Z,25.50
2018-07-13T01:27:51.766Z,20.30
2018-07-13T01:28:51.758Z,23.20
2018-07-13T01:29:51.745Z,19.30
2018-07-13T01:30:51.724Z,24.00
2018-07-13T01:31:51.717Z,25.20
2018-07-13T01:32:51.693Z,24.70
2018-07-13T01:33:51.681Z,26.10
2018-07-13T01:34:51.675Z,25.00
2018-07-13T01:35:51.652Z,25.00
2018-07-13T01:36:51.637Z,24.40
2018-07-13T01:37:51.620Z,23.70
2018-07-13T01:38:51.607Z,21.10
2018-07-13T01:39:51.593Z,31.90
2018-07-13T01:40:51.575Z,25.10
2018-07-13T01:41:51.571Z,24.10
2018-07-13T01:42:51.546Z,23.90
2018-07-13T01:43:51.530Z,30.30
2018-07-13T01:44:51.517Z,24.70
2018-07-13T01:45:51.511Z,25.80
2018-07-13T01:46:51.494Z,21.20
2018-07-13T01:47:51.473Z,30.10
2018-07-13T01:48:51.462Z,21.00
2018-07-13T01:49:51.446Z,28.80
2018-07-13T01:50:51.428Z,25.20
2018-07-13T01:51:51.425Z,24.20
2018-07-13T01:52:51.398Z,27.70
2018-07-13T01:53:51.383Z,30.00
2018-07-13T01:54:51.377Z,28.00
2018-07-13T01:55:51.355Z,23.70
2018-07-13T01:56:51.340Z,28.10
2018-07-13T01:57:51.325Z,25.00
2018-07-13T01:58:51.319Z,26.50
2018-07-13T01:59:51.293Z,26.70
2018-07-13T02:00:51.280Z,31.90
2018-07-13T02:01:51.264Z,23.40
2018-07-13T02:02:51.250Z,31.70
2018-07-13T02:03:51.235Z,23.10
2018-07-13T02:04:51.220Z,20.70
2018-07-13T02:05:51.204Z,30.00
2018-07-13T02:06:51.189Z,26.40
2018-07-13T02:07:51.175Z,26.70
2018-07-13T02:08:51.178Z,26.50
2018-07-13T02:09:51.145Z,24.00
2018-07-13T02:10:51.130Z,23.10
2018-07-13T02:11:51.116Z,28.60
2018-07-13T02:12:51.100Z,26.80
2018-07-13T02:13:51.087Z,27.50
2018-07-13T02:14:51.070Z,29.00
2018-07-13T02:15:51.063Z,26.00
2018-07-13T02:16:51.044Z,27.60
2018-07-13T02:17:51.088Z,23.60
2018-07-13T02:18:51.015Z,30.60
2018-07-13T02:19:50.996Z,32.30
2018-07-13T02:20:50.978Z,33.70
2018-07-13T02:21:50.965Z,33.20
2018-07-13T02:22:50.950Z,30.20
2018-07-13T02:23:50.933Z,26.80
2018-07-13T02:24:50.921Z,27.20
2018-07-13T02:25:50.906Z,21.60
2018-07-13T02:26:50.895Z,28.30
2018-07-13T02:27:50.877Z,26.50
2018-07-13T02:28:50.861Z,31.00
2018-07-13T02:29:50.845Z,27.60
2018-07-13T02:30:50.829Z,30.20
2018-07-13T02:31:50.916Z,28.30
2018-07-13T02:32:50.808Z,28.40
2018-07-13T02:33:50.806Z,28.40
2018-07-13T02:34:50.821Z,24.80
2018-07-13T02:35:50.754Z,31.30
2018-07-13T02:36:50.738Z,34.90
2018-07-13T02:37:50.738Z,30.40
2018-07-13T02:38:50.714Z,27.50
2018-07-13T02:39:50.696Z,28.30
2018-07-13T02:40:50.679Z,27.60
2018-07-13T02:41:50.662Z,25.50
2018-07-13T02:42:50.648Z,24.70
2018-07-13T02:43:50.635Z,31.40
2018-07-13T02:44:50.620Z,30.70
2018-07-13T02:45:50.603Z,31.40
2018-07-13T02:46:50.587Z,31.60
2018-07-13T02:47:50.572Z,31.20
2018-07-13T02:48:50.566Z,24.60
2018-07-13T02:49:50.543Z,28.50
2018-07-13T02:50:50.528Z,30.70
2018-07-13T02:51:50.512Z,31.90
2018-07-13T02:52:50.503Z,28.80
2018-07-13T02:53:50.483Z,29.70
2018-07-13T02:54:50.468Z,27.70
2018-07-13T02:55:50.460Z,34.40
2018-07-13T02:56:50.438Z,31.10
2018-07-13T02:57:50.434Z,27.40
2018-07-13T02:58:50.415Z,29.50
2018-07-13T02:59:50.392Z,30.60
2018-07-13T03:00:50.378Z,31.40
2018-07-13T03:01:50.362Z,30.30
2018-07-13T03:02:50.348Z,25.80
2018-07-13T03:03:50.329Z,32.50
2018-07-13T03:04:50.333Z,26.30
2018-07-13T03:05:50.304Z,31.50
2018-07-13T03:06:50.301Z,31.40
2018-07-13T03:07:50.270Z,30.50
2018-07-13T03:08:50.258Z,29.00
2018-07-13T03:09:50.240Z,25.80
2018-07-13T03:10:50.231Z,31.30
2018-07-13T03:11:50.211Z,28.00
2018-07-13T03:12:50.195Z,29.40
2018-07-13T03:13:50.184Z,28.00
2018-07-13T03:14:50.169Z,28.90
2018-07-13T03:15:50.158Z,32.40
2018-07-13T03:16:50.135Z,28.10
2018-07-13T03:17:50.118Z,29.10
2018-07-13T03:18:50.102Z,30.80
2018-07-13T03:19:50.089Z,30.10
2018-07-13T03:20:50.078Z,31.30
2018-07-13T03:21:50.066Z,28.80
2018-07-13T03:22:50.043Z,29.50
2018-07-13T03:23:50.027Z,29.00
2018-07-13T03:24:50.016Z,25.70
2018-07-13T03:25:50.007Z,30.40
2018-07-13T03:26:50.003Z,28.20
2018-07-13T03:27:49.967Z,25.90
2018-07-13T03:28:49.957Z,28.90
2018-07-13T03:29:49.936Z,26.80
2018-07-13T03:30:49.924Z,25.50
2018-07-13T03:31:49.912Z,26.50
2018-07-13T03:32:49.891Z,23.90
2018-07-13T03:33:49.874Z,31.00
2018-07-13T03:34:49.860Z,31.80
2018-07-13T03:35:49.844Z,27.00
2018-07-13T03:36:49.832Z,32.10
2018-07-13T03:37:49.817Z,31.10
2018-07-13T03:38:49.800Z,37.20
2018-07-13T03:39:49.783Z,29.70
2018-07-13T03:40:49.767Z,27.90
2018-07-13T03:41:49.753Z,29.20
2018-07-13T03:42:49.738Z,26.30
2018-07-13T03:43:49.723Z,33.50
2018-07-13T03:44:49.709Z,32.50
2018-07-13T03:45:49.692Z,29.20
2018-07-13T03:46:49.676Z,31.80
2018-07-13T03:47:49.661Z,28.10
2018-07-13T03:48:49.653Z,33.20
2018-07-13T03:49:49.630Z,24.70
2018-07-13T03:50:49.661Z,27.10
2018-07-13T03:51:49.616Z,33.70
2018-07-13T03:52:49.584Z,31.50
2018-07-13T03:53:49.570Z,28.70
2018-07-13T03:54:49.555Z,26.70
2018-07-13T03:55:49.540Z,35.50
2018-07-13T03:56:49.525Z,25.90
2018-07-13T03:57:49.514Z,28.50
2018-07-13T03:58:49.495Z,28.20
2018-07-13T03:59:49.480Z,31.20
2018-07-13T04:00:49.464Z,32.60
2018-07-13T04:01:49.455Z,33.90
2018-07-13T04:02:49.434Z,34.30
2018-07-13T04:03:49.470Z,27.40
2018-07-13T04:04:49.403Z,32.10
2018-07-13T04:05:49.388Z,32.50
2018-07-13T04:06:49.372Z,30.80
2018-07-13T04:07:49.357Z,29.30
2018-07-13T04:08:49.348Z,31.50
2018-07-13T04:09:49.328Z,30.90
2018-07-13T04:10:49.317Z,33.30
2018-07-13T04:11:49.298Z,34.00
2018-07-13T04:12:49.285Z,29.30
2018-07-13T04:13:49.268Z,32.90
2018-07-13T04:14:49.340Z,31.30
2018-07-13T04:15:49.237Z,25.40
2018-07-13T04:16:49.221Z,23.90
2018-07-13T04:17:49.208Z,28.70
2018-07-13T04:18:49.194Z,29.10
2018-07-13T04:19:49.180Z,28.40
2018-07-13T04:20:49.162Z,31.20
2018-07-13T04:21:49.149Z,32.70
2018-07-13T04:22:49.133Z,30.40
2018-07-13T04:23:49.117Z,30.10
2018-07-13T04:24:49.103Z,26.30
2018-07-13T04:25:49.093Z,28.10
2018-07-13T04:26:49.071Z,28.80
2018-07-13T04:27:49.058Z,27.20
2018-07-13T04:28:49.105Z,28.00
2018-07-13T04:29:49.027Z,31.40
2018-07-13T04:30:49.019Z,29.30
2018-07-13T04:31:49.000Z,28.80
2018-07-13T04:32:48.987Z,25.60
2018-07-13T04:33:48.973Z,28.30
2018-07-13T04:34:48.953Z,26.10
2018-07-13T04:35:48.939Z,25.20
2018-07-13T04:36:48.933Z,28.60
2018-07-13T04:37:48.919Z,26.40
2018-07-13T04:38:48.894Z,24.60
2018-07-13T04:39:48.880Z,29.90
2018-07-13T04:40:48.924Z,25.20
2018-07-13T04:41:48.850Z,21.00
2018-07-13T04:42:48.837Z,27.20
2018-07-13T04:43:48.819Z,24.70
2018-07-13T04:44:48.805Z,25.20
2018-07-13T04:45:48.827Z,23.60
2018-07-13T04:46:48.776Z,26.00
2018-07-13T04:47:48.763Z,26.00
2018-07-13T04:48:48.747Z,26.00
2018-07-13T04:49:48.732Z,29.00
2018-07-13T04:50:48.718Z,24.40
2018-07-13T04:51:48.703Z,28.10
2018-07-13T04:52:48.688Z,22.80
2018-07-13T04:53:48.676Z,27.50
2018-07-13T04:54:48.660Z,29.50
2018-07-13T04:55:48.643Z,25.90
2018-07-13T04:56:48.631Z,26.60
2018-07-13T04:57:48.623Z,27.20
2018-07-13T04:58:48.610Z,26.60
2018-07-13T04:59:48.587Z,24.60
2018-07-13T05:00:48.573Z,24.00
2018-07-13T05:01:48.604Z,27.90
2018-07-13T05:02:48.551Z,30.10
2018-07-13T05:03:48.528Z,27.80
2018-07-13T05:04:48.513Z,29.00
2018-07-13T05:05:48.512Z,26.10
2018-07-13T05:06:48.495Z,30.40
2018-07-13T05:07:48.470Z,23.80
2018-07-13T05:08:48.457Z,22.70
2018-07-13T05:09:48.449Z,24.30
2018-07-13T05:10:48.427Z,28.90
2018-07-13T05:11:48.416Z,27.70
2018-07-13T05:12:48.400Z,25.30
2018-07-13T05:13:48.383Z,28.00
2018-07-13T05:14:48.370Z,24.70
2018-07-13T05:15:48.354Z,25.70
2018-07-13T05:16:48.342Z,28.00
2018-07-13T05:17:48.326Z,32.80
2018-07-13T05:18:48.313Z,24.30
2018-07-13T05:19:48.298Z,26.60
2018-07-13T05:20:48.291Z,23.30
2018-07-13T05:21:48.269Z,27.20
2018-07-13T05:22:48.259Z,28.50
2018-07-13T05:23:48.245Z,22.20
2018-07-13T05:24:48.225Z,23.40
2018-07-13T05:25:48.213Z,26.90
2018-07-13T05:26:48.198Z,28.00
2018-07-13T05:27:48.182Z,29.70
2018-07-13T05:28:48.174Z,24.60
2018-07-13T05:29:48.154Z,26.50
2018-07-13T05:30:48.211Z,31.00
2018-07-13T05:31:48.124Z,34.40
2018-07-13T05:32:48.169Z,27.80
2018-07-13T05:33:48.098Z,32.30
2018-07-13T05:34:48.095Z,25.00
2018-07-13T05:35:48.069Z,26.70
2018-07-13T05:36:48.072Z,30.80
2018-07-13T05:37:48.048Z,34.40
2018-07-13T05:38:48.036Z,30.00
2018-07-13T05:39:48.010Z,33.50
2018-07-13T05:40:47.998Z,25.30
2018-07-13T05:41:47.984Z,29.80
2018-07-13T05:42:47.968Z,31.10
2018-07-13T05:43:47.953Z,31.80
2018-07-13T05:44:47.949Z,33.50
2018-07-13T05:45:47.936Z,30.80
2018-07-13T05:46:47.911Z,31.90
2018-07-13T05:47:47.897Z,34.10
2018-07-13T05:48:47.889Z,35.50
2018-07-13T05:49:47.926Z,30.30
2018-07-13T05:50:47.853Z,34.70
2018-07-13T05:51:47.845Z,32.40
2018-07-13T05:52:47.830Z,35.50
2018-07-13T05:53:47.819Z,47.00
2018-07-13T05:54:47.797Z,36.50
2018-07-13T05:55:47.788Z,34.00
2018-07-13T05:56:47.767Z,38.40
2018-07-13T05:57:47.755Z,35.70
2018-07-13T05:58:47.740Z,36.10
2018-07-13T05:59:47.725Z,34.40
2018-07-13T06:00:47.719Z,36.40
2018-07-13T06:01:47.695Z,35.50
2018-07-13T06:02:47.682Z,32.80
2018-07-13T06:03:47.707Z,35.10
2018-07-13T06:04:47.704Z,34.50
2018-07-13T06:05:47.638Z,31.00
2018-07-13T06:06:47.627Z,24.70
2018-07-13T06:07:47.609Z,32.80
2018-07-13T06:08:47.597Z,25.60
2018-07-13T06:09:47.596Z,27.20
2018-07-13T06:10:47.568Z,29.00
2018-07-13T06:11:47.551Z,25.00
2018-07-13T06:12:47.538Z,25.20
2018-07-13T06:13:47.526Z,34.30
2018-07-13T06:14:47.588Z,26.20
2018-07-13T06:15:47.496Z,30.60
2018-07-13T06:16:47.484Z,30.30
2018-07-13T06:17:47.468Z,32.10
2018-07-13T06:18:47.456Z,36.00
2018-07-13T06:19:47.438Z,31.60
2018-07-13T06:20:47.427Z,30.50
2018-07-13T06:21:47.418Z,36.70
2018-07-13T06:22:47.397Z,25.40
2018-07-13T06:23:47.382Z,30.90
2018-07-13T06:24:47.367Z,29.30
2018-07-13T06:25:47.353Z,29.70
2018-07-13T06:26:47.339Z,26.80
2018-07-13T06:27:47.324Z,27.10
2018-07-13T06:28:47.311Z,26.00
2018-07-13T06:29:47.297Z,24.40
2018-07-13T06:30:47.284Z,21.90
2018-07-13T06:31:47.318Z,22.30
2018-07-13T06:32:47.254Z,22.30
2018-07-13T06:33:47.239Z,23.30
2018-07-13T06:34:47.234Z,22.70
2018-07-13T06:35:47.210Z,25.60
2018-07-13T06:36:47.204Z,27.60
2018-07-13T06:37:47.194Z,23.30
2018-07-13T06:38:47.172Z,19.90
2018-07-13T06:39:47.154Z,27.30
2018-07-13T06:40:47.149Z,22.10
2018-07-13T06:41:47.126Z,26.00
2018-07-13T06:42:47.115Z,20.80
2018-07-13T06:43:47.104Z,21.80
2018-07-13T06:44:47.101Z,25.60
2018-07-13T06:45:47.079Z,25.40
2018-07-13T06:46:47.058Z,21.80
2018-07-13T06:47:47.048Z,25.30
2018-07-13T06:48:47.029Z,17.30
2018-07-13T06:49:47.018Z,22.40
2018-07-13T06:50:47.064Z,26.60
2018-07-13T06:51:46.988Z,19.10
2018-07-13T06:52:46.983Z,26.30
2018-07-13T06:53:46.962Z,30.70
2018-07-13T06:54:46.950Z,25.10
2018-07-13T06:55:46.933Z,23.80
2018-07-13T06:56:46.955Z,27.50
2018-07-13T06:57:46.916Z,27.50
2018-07-13T06:58:46.895Z,23.20
2018-07-13T06:59:46.880Z,22.80
2018-07-13T07:00:46.867Z,24.10
2018-07-13T07:01:46.881Z,25.50
2018-07-13T07:02:46.848Z,28.10
2018-07-13T07:03:46.832Z,20.10
2018-07-13T07:04:46.809Z,25.70
2018-07-13T07:05:46.807Z,23.40
2018-07-13T07:06:46.793Z,22.80
2018-07-13T07:07:46.773Z,23.90
2018-07-13T07:08:46.763Z,23.90
2018-07-13T07:09:46.745Z,20.30
2018-07-13T07:10:46.732Z,22.60
2018-07-13T07:11:46.717Z,25.70
2018-07-13T07:12:46.705Z,24.90
2018-07-13T07:13:46.690Z,22.60
2018-07-13T07:14:46.829Z,23.70
2018-07-13T07:15:46.661Z,27.60
2018-07-13T07:16:46.648Z,26.70
2018-07-13T07:17:46.792Z,23.10
2018-07-13T07:18:46.623Z,23.50
2018-07-13T07:19:46.604Z,22.20
2018-07-13T07:20:46.593Z,23.80
2018-07-13T07:21:46.580Z,23.60
2018-07-13T07:22:46.567Z,21.20
2018-07-13T07:23:46.551Z,20.80
2018-07-13T07:24:46.539Z,26.50
2018-07-13T07:25:46.524Z,21.10
2018-07-13T07:26:46.512Z,24.50
2018-07-13T07:27:46.507Z,20.20
2018-07-13T07:28:46.484Z,21.60
2018-07-13T07:29:46.472Z,21.90
2018-07-13T07:30:46.466Z,23.10
2018-07-13T07:31:46.445Z,21.10
2018-07-13T07:32:46.440Z,18.90
2018-07-13T07:33:46.428Z,20.90
2018-07-13T07:34:46.407Z,20.50
2018-07-13T07:35:46.393Z,21.70
2018-07-13T07:36:46.380Z,19.80
2018-07-13T07:37:46.371Z,23.10
2018-07-13T07:38:46.357Z,22.90
2018-07-13T07:39:46.397Z,18.80
2018-07-13T07:40:46.331Z,18.30
2018-07-13T07:41:46.318Z,16.10
2018-07-13T07:42:46.305Z,22.10
2018-07-13T07:43:46.295Z,17.40
2018-07-13T07:44:46.280Z,21.30
2018-07-13T07:45:46.276Z,20.50
2018-07-13T07:46:46.255Z,20.50
2018-07-13T07:47:46.244Z,19.70
2018-07-13T07:48:46.241Z,24.80
2018-07-13T07:49:46.219Z,18.90
2018-07-13T07:50:46.212Z,24.20
2018-07-13T07:51:46.197Z,20.60
2018-07-13T07:52:46.183Z,22.30
2018-07-13T07:53:46.173Z,17.10
2018-07-13T07:54:46.163Z,18.60
2018-07-13T07:56:31.955Z,16.40
2018-07-13T07:57:31.549Z,17.00
2018-07-13T07:58:31.523Z,22.20
2018-07-13T07:59:31.520Z,19.10
2018-07-13T08:00:31.500Z,22.10
2018-07-13T08:01:31.489Z,19.20
2018-07-13T08:02:31.479Z,15.20
2018-07-13T08:03:31.466Z,23.20
2018-07-13T08:04:31.455Z,19.50
2018-07-13T08:05:31.447Z,20.40
2018-07-13T08:06:31.618Z,21.50
2018-07-13T08:07:31.438Z,19.90
2018-07-13T08:08:31.412Z,14.30
2018-07-13T08:09:31.404Z,20.60
2018-07-13T08:10:31.390Z,18.10
2018-07-13T08:11:31.382Z,19.00
2018-07-13T08:12:31.371Z,13.50
2018-07-13T08:13:31.391Z,16.40
2018-07-13T08:14:31.391Z,16.50
2018-07-13T08:15:31.342Z,14.50
2018-07-13T08:16:31.355Z,18.30
2018-07-13T08:17:31.318Z,20.60
2018-07-13T08:18:31.308Z,18.90
2018-07-13T08:19:31.298Z,16.20
2018-07-13T08:20:31.294Z,15.20
2018-07-13T08:21:31.279Z,18.70
2018-07-13T08:22:31.275Z,14.90
2018-07-13T08:23:31.261Z,19.50
2018-07-13T08:24:31.247Z,17.40
2018-07-13T08:25:31.240Z,16.80
2018-07-13T08:26:31.238Z,17.30
2018-07-13T08:27:31.223Z,14.30
2018-07-13T08:28:31.209Z,15.40
2018-07-13T08:29:31.197Z,17.20
2018-07-13T08:30:31.185Z,18.80
2018-07-13T08:31:31.175Z,17.10
2018-07-13T08:32:31.168Z,14.80
2018-07-13T08:33:31.150Z,22.70
2018-07-13T08:34:31.140Z,17.10
2018-07-13T08:35:31.130Z,17.90
2018-07-13T08:36:31.119Z,17.90
2018-07-13T08:37:31.114Z,17.20
2018-07-13T08:38:31.098Z,15.60
2018-07-13T08:39:31.091Z,22.40
2018-07-13T08:40:31.083Z,14.70
2018-07-13T08:41:31.063Z,17.10
2018-07-13T08:42:31.054Z,14.00
2018-07-13T08:43:31.054Z,19.80
2018-07-13T08:44:31.031Z,13.00
2018-07-13T08:45:31.024Z,18.80
2018-07-13T08:46:31.015Z,17.80
2018-07-13T08:47:30.999Z,18.10
2018-07-13T08:48:31.002Z,19.20
2018-07-13T08:49:30.977Z,19.10
2018-07-13T08:50:30.966Z,17.60
2018-07-13T08:51:30.963Z,17.20
2018-07-13T08:52:30.941Z,16.20
2018-07-13T08:53:30.949Z,11.40
2018-07-13T08:54:30.924Z,16.00
2018-07-13T08:55:30.918Z,16.70
2018-07-13T08:56:30.904Z,18.90
2018-07-13T08:57:30.897Z,15.40
2018-07-13T08:58:30.881Z,14.20
2018-07-13T08:59:30.870Z,15.10
2018-07-13T09:00:33.686Z,19.20
2018-07-13T09:01:30.849Z,15.70
2018-07-13T09:02:30.835Z,13.90
2018-07-13T09:03:30.828Z,15.90
2018-07-13T09:04:30.834Z,16.30
2018-07-13T09:05:30.801Z,19.10
2018-07-13T09:06:30.813Z,15.40
2018-07-13T09:07:30.812Z,15.90
2018-07-13T09:08:30.772Z,15.30
2018-07-13T09:09:30.923Z,17.00
2018-07-13T09:10:30.755Z,16.00
2018-07-13T09:11:34.784Z,15.30
2018-07-13T09:12:30.761Z,16.90
2018-07-13T09:13:30.732Z,17.10
2018-07-13T09:14:30.726Z,18.70
2018-07-13T09:15:30.709Z,18.30
2018-07-13T09:16:30.699Z,16.50
2018-07-13T09:17:30.689Z,15.90
2018-07-13T09:18:30.684Z,23.00
2018-07-13T09:19:30.680Z,12.60
2018-07-13T09:20:30.678Z,15.20
2018-07-13T09:21:30.656Z,15.90
2018-07-13T09:22:30.650Z,17.30
2018-07-13T09:23:30.643Z,15.70
2018-07-13T09:24:30.640Z,15.90
2018-07-13T09:25:30.625Z,15.00
2018-07-13T09:26:30.618Z,18.30
2018-07-13T09:27:30.608Z,15.70
2018-07-13T09:28:30.599Z,15.70
2018-07-13T09:29:30.600Z,17.50
2018-07-13T09:30:30.585Z,14.00
2018-07-13T09:31:30.575Z,13.70
2018-07-13T09:32:30.572Z,15.20
2018-07-13T09:33:30.566Z,12.10
2018-07-13T09:34:30.556Z,13.80
2018-07-13T09:35:30.545Z,11.60
2018-07-13T09:36:30.534Z,14.10
2018-07-13T09:37:30.526Z,16.20
2018-07-13T09:38:30.518Z,13.90
2018-07-13T09:39:30.511Z,15.80
2018-07-13T09:40:30.502Z,13.40
2018-07-13T09:41:30.596Z,13.40
2018-07-13T09:42:30.487Z,14.80
2018-07-13T09:43:30.480Z,11.70
2018-07-13T09:44:30.473Z,10.60
2018-07-13T09:45:30.469Z,14.40
2018-07-13T09:46:30.529Z,16.80
2018-07-13T09:47:30.462Z,13.70
2018-07-13T09:48:30.454Z,15.00
2018-07-13T09:49:30.441Z,9.80
2018-07-13T09:50:30.440Z,12.20
2018-07-13T09:51:30.430Z,11.80
2018-07-13T09:52:30.425Z,12.10
2018-07-13T09:53:30.418Z,18.10
2018-07-13T09:54:30.423Z,15.00
2018-07-13T09:55:30.410Z,8.10
2018-07-13T09:56:30.402Z,11.20
2018-07-13T09:57:30.395Z,10.50
2018-07-13T09:58:30.410Z,10.90
2018-07-13T09:59:30.386Z,14.50
2018-07-13T10:00:30.500Z,10.40
2018-07-13T10:01:30.377Z,17.60
2018-07-13T10:02:30.374Z,13.50
2018-07-13T10:03:30.362Z,12.50
2018-07-13T10:04:30.362Z,11.30
2018-07-13T10:05:30.351Z,12.70
2018-07-13T10:06:30.377Z,12.60
2018-07-13T10:07:30.343Z,11.60
2018-07-13T10:08:30.331Z,11.90
2018-07-13T10:09:30.328Z,12.90
2018-07-13T10:10:30.326Z,12.80
2018-07-13T10:11:30.320Z,11.40
2018-07-13T10:12:30.315Z,10.50
2018-07-13T10:13:30.424Z,11.60
2018-07-13T10:14:30.310Z,12.50
2018-07-13T10:15:30.358Z,10.40
2018-07-13T10:16:30.304Z,8.90
2018-07-13T10:17:30.302Z,17.60
2018-07-13T10:18:30.301Z,13.60
2018-07-13T10:19:30.303Z,12.00
2018-07-13T10:20:30.299Z,13.40
2018-07-13T10:21:30.299Z,10.00
2018-07-13T10:22:30.315Z,7.50
2018-07-13T10:23:30.308Z,8.60
2018-07-13T10:24:30.303Z,8.50
2018-07-13T10:25:30.312Z,8.20
2018-07-13T10:26:30.303Z,9.80
2018-07-13T10:27:30.304Z,13.50
2018-07-13T10:28:30.311Z,14.20
2018-07-13T10:29:30.308Z,13.60
2018-07-13T10:30:30.311Z,9.90
2018-07-13T10:31:30.315Z,8.00
2018-07-13T10:32:30.336Z,9.10
2018-07-13T10:33:30.328Z,9.40
2018-07-13T10:34:30.325Z,9.60
2018-07-13T10:35:30.426Z,11.20
2018-07-13T10:36:30.332Z,13.10
2018-07-13T10:37:30.335Z,9.10
2018-07-13T10:38:30.340Z,11.70
2018-07-13T10:39:30.345Z,10.40
2018-07-13T10:40:30.348Z,10.00
2018-07-13T10:41:30.358Z,7.80
2018-07-13T10:42:30.364Z,11.30
2018-07-13T10:43:30.364Z,9.10
2018-07-13T10:44:30.376Z,9.80
2018-07-13T10:45:30.383Z,9.50
2018-07-13T10:46:30.387Z,8.30
2018-07-13T10:47:30.385Z,9.50
2018-07-13T10:48:30.397Z,10.40
2018-07-13T10:49:30.409Z,10.80
2018-07-13T10:50:30.403Z,9.70
2018-07-13T10:51:30.462Z,10.80
2018-07-13T10:52:30.419Z,9.60
2018-07-13T10:53:30.417Z,11.10
2018-07-13T10:54:30.445Z,7.50
2018-07-13T10:55:30.429Z,9.00
2018-07-13T10:56:30.435Z,7.20
2018-07-13T10:57:30.451Z,9.00
2018-07-13T10:58:30.478Z,11.80
2018-07-13T10:59:30.459Z,11.70
2018-07-13T11:00:30.459Z,7.10
2018-07-13T11:01:30.472Z,8.40
2018-07-13T11:02:30.474Z,10.70
2018-07-13T11:03:30.481Z,11.90
2018-07-13T11:04:30.487Z,9.90
2018-07-13T11:05:30.493Z,10.00
2018-07-13T11:06:30.600Z,10.80
2018-07-13T11:07:30.505Z,8.60
2018-07-13T11:08:30.512Z,9.30
2018-07-13T11:09:30.520Z,8.90
2018-07-13T11:10:30.526Z,11.40
2018-07-13T11:11:30.533Z,14.20
2018-07-13T11:12:30.560Z,12.20
2018-07-13T11:13:30.546Z,10.20
2018-07-13T11:14:30.555Z,7.50
2018-07-13T11:15:30.562Z,9.40
2018-07-13T11:16:30.566Z,6.60
2018-07-13T11:17:30.573Z,8.50
2018-07-13T11:18:30.579Z,10.70
2018-07-13T11:19:30.598Z,9.40
2018-07-13T11:20:30.604Z,7.60
2018-07-13T11:21:30.602Z,9.10
2018-07-13T11:22:30.616Z,10.50
2018-07-13T11:23:30.614Z,8.90
2018-07-13T11:24:30.619Z,8.30
2018-07-13T11:25:30.632Z,9.80
2018-07-13T11:26:30.638Z,11.10
2018-07-13T11:27:30.640Z,10.20
2018-07-13T11:28:30.648Z,10.00
2018-07-13T11:29:30.654Z,10.90
2018-07-13T11:30:30.661Z,8.60
2018-07-13T11:31:30.669Z,9.30
2018-07-13T11:32:30.677Z,8.30
2018-07-13T11:33:30.681Z,9.70
2018-07-13T11:34:30.689Z,11.60
2018-07-13T11:35:30.694Z,10.50
2018-07-13T11:36:30.732Z,8.90
2018-07-13T11:37:30.709Z,8.80
2018-07-13T11:38:30.713Z,10.70
2018-07-13T11:39:30.718Z,11.30
2018-07-13T11:40:30.725Z,11.50
2018-07-13T11:41:30.739Z,8.00
2018-07-13T11:42:30.745Z,11.00
2018-07-13T11:43:30.744Z,8.90
2018-07-13T11:44:30.847Z,10.20
2018-07-13T11:45:30.753Z,9.20
2018-07-13T11:46:30.759Z,8.30
2018-07-13T11:47:30.785Z,10.40
2018-07-13T11:48:30.766Z,10.20
2018-07-13T11:49:30.796Z,10.20
2018-07-13T11:50:30.775Z,9.70
2018-07-13T11:51:30.781Z,14.10
2018-07-13T11:52:30.784Z,8.60
2018-07-13T11:53:30.789Z,9.00
2018-07-13T11:54:30.800Z,11.70
2018-07-13T11:55:30.802Z,9.60
2018-07-13T11:56:30.795Z,6.90
2018-07-13T11:57:30.798Z,11.20
2018-07-13T11:58:30.814Z,8.90
2018-07-13T11:59:30.812Z,6.80
2018-07-13T12:00:30.820Z,8.20
2018-07-13T12:01:30.805Z,6.40
2018-07-13T12:02:30.817Z,6.70
2018-07-13T12:03:31.815Z,8.50
2018-07-13T12:04:30.812Z,7.50
2018-07-13T12:05:30.803Z,9.10
2018-07-13T12:06:30.802Z,7.40
2018-07-13T12:07:30.891Z,11.60
2018-07-13T12:08:30.798Z,9.40
2018-07-13T12:09:30.797Z,11.90
2018-07-13T12:10:30.853Z,10.30
2018-07-13T12:11:30.792Z,7.70
2018-07-13T12:12:30.835Z,9.20
2018-07-13T12:13:30.788Z,8.40
2018-07-13T12:14:34.831Z,8.00
2018-07-13T12:15:30.780Z,12.50
2018-07-13T12:16:30.814Z,7.90
2018-07-13T12:17:30.979Z,10.80
2018-07-13T12:21:02.027Z,5.90
2018-07-13T12:21:59.390Z,8.50
2018-07-13T12:23:43.523Z,10.00
2018-07-13T12:24:43.517Z,10.20
2018-07-13T12:25:46.190Z,9.50
2018-07-13T12:26:43.506Z,6.70
2018-07-13T12:27:43.493Z,11.50
2018-07-13T12:28:43.647Z,8.00
2018-07-13T12:29:43.481Z,9.50
2018-07-13T12:30:43.476Z,11.00
2018-07-13T12:31:43.474Z,11.40
2018-07-13T12:32:43.469Z,8.60
2018-07-13T12:33:43.473Z,11.40
2018-07-13T12:34:43.451Z,10.30
2018-07-13T12:35:43.445Z,7.50
2018-07-13T12:36:43.438Z,8.80
2018-07-13T12:37:43.432Z,8.60
2018-07-13T12:38:43.427Z,10.90
2018-07-13T12:39:43.473Z,8.50
2018-07-13T12:40:43.415Z,6.60
2018-07-13T12:41:43.560Z,9.90
2018-07-13T12:42:43.403Z,6.80
2018-07-13T12:43:43.395Z,8.50
2018-07-13T12:44:43.387Z,10.10
2018-07-13T12:45:43.385Z,8.80
2018-07-13T12:46:43.375Z,11.40
2018-07-13T12:47:43.378Z,13.40
2018-07-13T12:48:43.358Z,9.90
2018-07-13T12:49:43.353Z,8.90
2018-07-13T12:50:43.348Z,7.80
2018-07-13T12:51:43.342Z,10.50
2018-07-13T12:52:43.342Z,12.00
2018-07-13T12:53:43.325Z,7.90
2018-07-13T12:54:43.395Z,8.90
2018-07-13T12:55:43.312Z,9.50
2018-07-13T12:56:43.304Z,11.40
2018-07-13T12:57:43.306Z,8.90
2018-07-13T12:58:43.293Z,6.40
2018-07-13T12:59:43.296Z,11.60